sensor_id;sensor_type;location;lat;lon;timestamp;P1;durP1;ratioP1;P2;durP2;ratioP2
79670;SDS011;69137;50.878;8.050;2023-05-29T00:00:13;5.93;;;3.20;;
79670;SDS011;69137;50.878;8.050;2023-05-29T00:02:43;7.07;;;3.10;;
79670;SDS011;69137;50.878;8.050;2023-05-29T00:05:13;5.90;;;3.05;;
79670;SDS011;69137;50.878;8.050;2023-05-29T00:07:39;5.43;;;3.10;;
79670;SDS011;69137;50.878;8.050;2023-05-29T00:10:06;7.10;;;3.03;;
79670;SDS011;69137;50.878;8.050;2023-05-29T00:12:33;5.07;;;2.67;;
79670;SDS011;69137;50.878;8.050;2023-05-29T00:14:58;6.25;;;2.90;;
79670;SDS011;69137;50.878;8.050;2023-05-29T00:17:24;6.22;;;3.00;;
79670;SDS011;69137;50.878;8.050;2023-05-29T00:19:49;4.47;;;2.63;;
79670;SDS011;69137;50.878;8.050;2023-05-29T00:22:15;5.45;;;2.85;;
79670;SDS011;69137;50.878;8.050;2023-05-29T00:24:41;7.88;;;3.50;;
79670;SDS011;69137;50.878;8.050;2023-05-29T00:27:06;5.82;;;2.80;;
79670;SDS011;69137;50.878;8.050;2023-05-29T00:29:31;9.13;;;3.08;;
79670;SDS011;69137;50.878;8.050;2023-05-29T00:31:57;5.90;;;3.20;;
79670;SDS011;69137;50.878;8.050;2023-05-29T00:34:23;6.53;;;2.90;;
79670;SDS011;69137;50.878;8.050;2023-05-29T00:36:48;4.65;;;2.80;;
79670;SDS011;69137;50.878;8.050;2023-05-29T00:39:14;7.78;;;3.20;;
79670;SDS011;69137;50.878;8.050;2023-05-29T00:41:40;4.90;;;3.03;;
79670;SDS011;69137;50.878;8.050;2023-05-29T00:44:05;6.20;;;3.30;;
79670;SDS011;69137;50.878;8.050;2023-05-29T00:46:31;9.30;;;3.42;;
79670;SDS011;69137;50.878;8.050;2023-05-29T00:49:00;6.38;;;2.90;;
79670;SDS011;69137;50.878;8.050;2023-05-29T00:51:27;5.70;;;3.13;;
79670;SDS011;69137;50.878;8.050;2023-05-29T00:53:54;5.97;;;3.00;;
79670;SDS011;69137;50.878;8.050;2023-05-29T00:56:20;7.28;;;3.47;;
79670;SDS011;69137;50.878;8.050;2023-05-29T00:58:48;4.72;;;2.70;;
79670;SDS011;69137;50.878;8.050;2023-05-29T01:01:16;5.90;;;3.15;;
79670;SDS011;69137;50.878;8.050;2023-05-29T01:03:42;5.80;;;3.10;;
79670;SDS011;69137;50.878;8.050;2023-05-29T01:06:08;6.28;;;3.08;;
79670;SDS011;69137;50.878;8.050;2023-05-29T01:08:35;5.95;;;2.88;;
79670;SDS011;69137;50.878;8.050;2023-05-29T01:11:04;5.50;;;2.83;;
79670;SDS011;69137;50.878;8.050;2023-05-29T01:13:51;4.25;;;2.72;;
79670;SDS011;69137;50.878;8.050;2023-05-29T01:16:43;5.10;;;2.90;;
79670;SDS011;69137;50.878;8.050;2023-05-29T01:22:11;5.85;;;3.00;;
79670;SDS011;69137;50.878;8.050;2023-05-29T01:24:52;6.22;;;3.60;;
79670;SDS011;69137;50.878;8.050;2023-05-29T01:27:28;7.40;;;3.35;;
79670;SDS011;69137;50.878;8.050;2023-05-29T01:29:57;8.63;;;3.40;;
79670;SDS011;69137;50.878;8.050;2023-05-29T01:32:24;7.32;;;4.07;;
79670;SDS011;69137;50.878;8.050;2023-05-29T01:34:51;5.53;;;3.17;;
79670;SDS011;69137;50.878;8.050;2023-05-29T01:37:16;6.15;;;2.60;;
79670;SDS011;69137;50.878;8.050;2023-05-29T01:39:41;6.13;;;3.28;;
79670;SDS011;69137;50.878;8.050;2023-05-29T01:42:07;4.82;;;2.90;;
79670;SDS011;69137;50.878;8.050;2023-05-29T01:44:33;5.70;;;3.30;;
79670;SDS011;69137;50.878;8.050;2023-05-29T01:47:00;7.07;;;3.25;;
79670;SDS011;69137;50.878;8.050;2023-05-29T01:49:27;7.15;;;2.80;;
79670;SDS011;69137;50.878;8.050;2023-05-29T01:51:54;7.05;;;3.25;;
79670;SDS011;69137;50.878;8.050;2023-05-29T01:54:20;6.82;;;3.17;;
79670;SDS011;69137;50.878;8.050;2023-05-29T01:56:46;4.80;;;2.70;;
79670;SDS011;69137;50.878;8.050;2023-05-29T01:59:12;4.45;;;2.72;;
79670;SDS011;69137;50.878;8.050;2023-05-29T02:01:41;6.63;;;3.20;;
79670;SDS011;69137;50.878;8.050;2023-05-29T02:04:07;7.90;;;3.08;;
79670;SDS011;69137;50.878;8.050;2023-05-29T02:06:32;4.43;;;2.58;;
79670;SDS011;69137;50.878;8.050;2023-05-29T02:09:01;5.15;;;2.80;;
79670;SDS011;69137;50.878;8.050;2023-05-29T02:11:27;6.20;;;2.85;;
79670;SDS011;69137;50.878;8.050;2023-05-29T02:13:52;6.22;;;3.28;;
79670;SDS011;69137;50.878;8.050;2023-05-29T02:16:17;6.85;;;2.95;;
79670;SDS011;69137;50.878;8.050;2023-05-29T02:18:45;4.63;;;2.92;;
79670;SDS011;69137;50.878;8.050;2023-05-29T02:21:11;6.85;;;3.40;;
79670;SDS011;69137;50.878;8.050;2023-05-29T02:23:36;5.93;;;3.03;;
79670;SDS011;69137;50.878;8.050;2023-05-29T02:26:02;5.47;;;3.35;;
79670;SDS011;69137;50.878;8.050;2023-05-29T02:28:27;6.28;;;3.00;;
79670;SDS011;69137;50.878;8.050;2023-05-29T02:30:53;7.97;;;3.63;;
79670;SDS011;69137;50.878;8.050;2023-05-29T02:33:19;8.27;;;3.40;;
79670;SDS011;69137;50.878;8.050;2023-05-29T02:35:45;4.57;;;3.00;;
79670;SDS011;69137;50.878;8.050;2023-05-29T02:38:10;6.97;;;3.55;;
79670;SDS011;69137;50.878;8.050;2023-05-29T02:40:35;5.25;;;2.67;;
79670;SDS011;69137;50.878;8.050;2023-05-29T02:43:01;7.53;;;3.45;;
79670;SDS011;69137;50.878;8.050;2023-05-29T02:45:26;12.55;;;3.60;;
79670;SDS011;69137;50.878;8.050;2023-05-29T02:47:52;6.53;;;3.80;;
79670;SDS011;69137;50.878;8.050;2023-05-29T02:50:20;8.73;;;3.65;;
79670;SDS011;69137;50.878;8.050;2023-05-29T02:52:45;5.65;;;2.65;;
79670;SDS011;69137;50.878;8.050;2023-05-29T02:55:10;5.88;;;3.28;;
79670;SDS011;69137;50.878;8.050;2023-05-29T02:57:36;5.25;;;3.33;;
79670;SDS011;69137;50.878;8.050;2023-05-29T03:00:02;7.60;;;3.83;;
79670;SDS011;69137;50.878;8.050;2023-05-29T03:02:31;8.65;;;4.50;;
79670;SDS011;69137;50.878;8.050;2023-05-29T03:04:57;7.43;;;4.05;;
79670;SDS011;69137;50.878;8.050;2023-05-29T03:07:22;6.28;;;3.42;;
79670;SDS011;69137;50.878;8.050;2023-05-29T03:09:47;6.07;;;3.33;;
79670;SDS011;69137;50.878;8.050;2023-05-29T03:12:13;9.20;;;3.90;;
79670;SDS011;69137;50.878;8.050;2023-05-29T03:14:38;6.78;;;3.70;;
79670;SDS011;69137;50.878;8.050;2023-05-29T03:17:04;7.93;;;3.80;;
79670;SDS011;69137;50.878;8.050;2023-05-29T03:19:30;7.93;;;3.85;;
79670;SDS011;69137;50.878;8.050;2023-05-29T03:21:56;6.90;;;3.78;;
79670;SDS011;69137;50.878;8.050;2023-05-29T03:24:32;6.30;;;3.50;;
79670;SDS011;69137;50.878;8.050;2023-05-29T03:30:51;11.55;;;3.80;;
79670;SDS011;69137;50.878;8.050;2023-05-29T03:33:19;7.13;;;4.00;;
79670;SDS011;69137;50.878;8.050;2023-05-29T03:36:06;8.50;;;3.95;;
79670;SDS011;69137;50.878;8.050;2023-05-29T03:38:32;7.30;;;4.30;;
79670;SDS011;69137;50.878;8.050;2023-05-29T03:40:58;7.00;;;3.95;;
79670;SDS011;69137;50.878;8.050;2023-05-29T03:43:23;7.53;;;3.40;;
79670;SDS011;69137;50.878;8.050;2023-05-29T03:45:49;7.85;;;4.25;;
79670;SDS011;69137;50.878;8.050;2023-05-29T03:48:14;9.50;;;3.80;;
79670;SDS011;69137;50.878;8.050;2023-05-29T03:50:40;9.05;;;4.38;;
79670;SDS011;69137;50.878;8.050;2023-05-29T03:53:06;9.65;;;4.85;;
79670;SDS011;69137;50.878;8.050;2023-05-29T03:55:31;11.32;;;4.65;;
79670;SDS011;69137;50.878;8.050;2023-05-29T03:57:57;7.82;;;4.57;;
79670;SDS011;69137;50.878;8.050;2023-05-29T04:00:23;9.60;;;4.55;;
79670;SDS011;69137;50.878;8.050;2023-05-29T04:02:48;11.25;;;4.95;;
79670;SDS011;69137;50.878;8.050;2023-05-29T04:05:13;9.05;;;4.60;;
79670;SDS011;69137;50.878;8.050;2023-05-29T04:07:39;11.68;;;4.40;;
79670;SDS011;69137;50.878;8.050;2023-05-29T04:10:05;11.27;;;5.15;;
79670;SDS011;69137;50.878;8.050;2023-05-29T04:12:34;9.30;;;4.70;;
79670;SDS011;69137;50.878;8.050;2023-05-29T04:17:25;9.10;;;4.23;;
79670;SDS011;69137;50.878;8.050;2023-05-29T04:19:50;9.65;;;4.45;;
79670;SDS011;69137;50.878;8.050;2023-05-29T04:22:16;9.65;;;4.10;;
79670;SDS011;69137;50.878;8.050;2023-05-29T04:24:41;12.32;;;4.72;;
79670;SDS011;69137;50.878;8.050;2023-05-29T04:27:07;13.18;;;4.90;;
79670;SDS011;69137;50.878;8.050;2023-05-29T04:29:34;12.20;;;5.20;;
79670;SDS011;69137;50.878;8.050;2023-05-29T04:32:00;11.35;;;4.35;;
79670;SDS011;69137;50.878;8.050;2023-05-29T04:34:28;6.75;;;4.28;;
79670;SDS011;69137;50.878;8.050;2023-05-29T04:36:55;8.80;;;4.32;;
79670;SDS011;69137;50.878;8.050;2023-05-29T04:39:24;6.85;;;4.50;;
79670;SDS011;69137;50.878;8.050;2023-05-29T04:41:50;6.28;;;4.13;;
79670;SDS011;69137;50.878;8.050;2023-05-29T04:44:16;8.57;;;4.43;;
79670;SDS011;69137;50.878;8.050;2023-05-29T04:46:42;9.02;;;3.97;;
79670;SDS011;69137;50.878;8.050;2023-05-29T04:49:09;7.90;;;4.20;;
79670;SDS011;69137;50.878;8.050;2023-05-29T04:51:35;8.85;;;4.72;;
79670;SDS011;69137;50.878;8.050;2023-05-29T04:54:01;7.70;;;4.25;;
79670;SDS011;69137;50.878;8.050;2023-05-29T04:56:27;7.70;;;4.07;;
79670;SDS011;69137;50.878;8.050;2023-05-29T04:58:53;10.20;;;4.68;;
79670;SDS011;69137;50.878;8.050;2023-05-29T05:01:18;8.45;;;4.20;;
79670;SDS011;69137;50.878;8.050;2023-05-29T05:03:44;8.27;;;4.18;;
79670;SDS011;69137;50.878;8.050;2023-05-29T05:06:10;8.07;;;4.55;;
79670;SDS011;69137;50.878;8.050;2023-05-29T05:08:35;11.18;;;4.50;;
79670;SDS011;69137;50.878;8.050;2023-05-29T05:11:01;5.72;;;4.05;;
79670;SDS011;69137;50.878;8.050;2023-05-29T05:13:27;12.70;;;3.95;;
79670;SDS011;69137;50.878;8.050;2023-05-29T05:15:53;10.45;;;5.05;;
79670;SDS011;69137;50.878;8.050;2023-05-29T05:18:19;8.23;;;4.28;;
79670;SDS011;69137;50.878;8.050;2023-05-29T05:20:45;9.90;;;3.72;;
79670;SDS011;69137;50.878;8.050;2023-05-29T05:23:10;8.38;;;4.40;;
79670;SDS011;69137;50.878;8.050;2023-05-29T05:25:36;6.72;;;4.30;;
79670;SDS011;69137;50.878;8.050;2023-05-29T05:28:03;8.93;;;4.32;;
79670;SDS011;69137;50.878;8.050;2023-05-29T05:30:29;10.55;;;4.57;;
79670;SDS011;69137;50.878;8.050;2023-05-29T05:32:55;10.98;;;4.95;;
79670;SDS011;69137;50.878;8.050;2023-05-29T05:35:21;8.05;;;4.32;;
79670;SDS011;69137;50.878;8.050;2023-05-29T05:37:47;5.82;;;4.22;;
79670;SDS011;69137;50.878;8.050;2023-05-29T05:40:12;14.02;;;4.88;;
79670;SDS011;69137;50.878;8.050;2023-05-29T05:42:38;7.85;;;4.03;;
79670;SDS011;69137;50.878;8.050;2023-05-29T05:45:03;5.60;;;3.53;;
79670;SDS011;69137;50.878;8.050;2023-05-29T05:47:31;6.30;;;3.75;;
79670;SDS011;69137;50.878;8.050;2023-05-29T05:49:56;6.28;;;4.13;;
79670;SDS011;69137;50.878;8.050;2023-05-29T05:52:23;7.47;;;4.30;;
79670;SDS011;69137;50.878;8.050;2023-05-29T05:54:49;6.95;;;4.50;;
79670;SDS011;69137;50.878;8.050;2023-05-29T05:57:16;7.85;;;4.30;;
79670;SDS011;69137;50.878;8.050;2023-05-29T05:59:41;11.60;;;4.68;;
79670;SDS011;69137;50.878;8.050;2023-05-29T06:02:06;10.52;;;4.63;;
79670;SDS011;69137;50.878;8.050;2023-05-29T06:04:32;7.18;;;4.38;;
79670;SDS011;69137;50.878;8.050;2023-05-29T06:07:00;12.68;;;4.97;;
79670;SDS011;69137;50.878;8.050;2023-05-29T06:09:26;6.85;;;4.13;;
79670;SDS011;69137;50.878;8.050;2023-05-29T06:11:51;10.25;;;4.35;;
79670;SDS011;69137;50.878;8.050;2023-05-29T06:14:16;7.38;;;4.25;;
79670;SDS011;69137;50.878;8.050;2023-05-29T06:16:44;10.95;;;4.80;;
79670;SDS011;69137;50.878;8.050;2023-05-29T06:19:10;6.97;;;4.28;;
79670;SDS011;69137;50.878;8.050;2023-05-29T06:21:36;4.70;;;3.60;;
79670;SDS011;69137;50.878;8.050;2023-05-29T06:24:02;6.85;;;4.20;;
79670;SDS011;69137;50.878;8.050;2023-05-29T06:26:28;7.82;;;4.43;;
79670;SDS011;69137;50.878;8.050;2023-05-29T06:28:53;7.82;;;4.32;;
79670;SDS011;69137;50.878;8.050;2023-05-29T06:31:19;7.45;;;4.90;;
79670;SDS011;69137;50.878;8.050;2023-05-29T06:33:45;8.57;;;4.30;;
79670;SDS011;69137;50.878;8.050;2023-05-29T06:36:11;7.40;;;3.78;;
79670;SDS011;69137;50.878;8.050;2023-05-29T06:38:36;5.53;;;3.35;;
79670;SDS011;69137;50.878;8.050;2023-05-29T06:41:02;7.80;;;3.67;;
79670;SDS011;69137;50.878;8.050;2023-05-29T06:43:28;6.18;;;3.90;;
79670;SDS011;69137;50.878;8.050;2023-05-29T06:45:54;10.52;;;3.83;;
79670;SDS011;69137;50.878;8.050;2023-05-29T06:48:19;8.70;;;3.90;;
79670;SDS011;69137;50.878;8.050;2023-05-29T06:50:46;7.80;;;3.88;;
79670;SDS011;69137;50.878;8.050;2023-05-29T06:53:12;6.47;;;3.83;;
79670;SDS011;69137;50.878;8.050;2023-05-29T06:55:38;5.60;;;3.25;;
79670;SDS011;69137;50.878;8.050;2023-05-29T06:58:05;8.60;;;4.95;;
79670;SDS011;69137;50.878;8.050;2023-05-29T07:00:31;10.35;;;4.13;;
79670;SDS011;69137;50.878;8.050;2023-05-29T07:02:57;6.38;;;3.28;;
79670;SDS011;69137;50.878;8.050;2023-05-29T07:19:20;6.07;;;3.47;;
79670;SDS011;69137;50.878;8.050;2023-05-29T07:21:45;6.35;;;3.92;;
79670;SDS011;69137;50.878;8.050;2023-05-29T07:24:10;5.82;;;3.28;;
79670;SDS011;69137;50.878;8.050;2023-05-29T07:26:38;9.60;;;3.22;;
79670;SDS011;69137;50.878;8.050;2023-05-29T07:29:03;9.02;;;4.20;;
79670;SDS011;69137;50.878;8.050;2023-05-29T07:31:31;8.75;;;3.28;;
79670;SDS011;69137;50.878;8.050;2023-05-29T07:41:42;8.98;;;3.83;;
79670;SDS011;69137;50.878;8.050;2023-05-29T07:44:07;6.55;;;3.33;;
79670;SDS011;69137;50.878;8.050;2023-05-29T07:46:33;6.90;;;3.67;;
79670;SDS011;69137;50.878;8.050;2023-05-29T07:48:58;6.28;;;3.70;;
79670;SDS011;69137;50.878;8.050;2023-05-29T07:51:24;6.85;;;3.42;;
79670;SDS011;69137;50.878;8.050;2023-05-29T07:53:49;9.30;;;3.55;;
79670;SDS011;69137;50.878;8.050;2023-05-29T07:56:15;7.05;;;3.75;;
79670;SDS011;69137;50.878;8.050;2023-05-29T07:58:41;6.93;;;3.50;;
79670;SDS011;69137;50.878;8.050;2023-05-29T08:01:07;7.97;;;3.80;;
79670;SDS011;69137;50.878;8.050;2023-05-29T08:05:59;10.25;;;3.65;;
79670;SDS011;69137;50.878;8.050;2023-05-29T08:08:25;7.78;;;4.10;;
79670;SDS011;69137;50.878;8.050;2023-05-29T08:10:50;6.75;;;3.90;;
79670;SDS011;69137;50.878;8.050;2023-05-29T08:13:16;6.97;;;3.67;;
79670;SDS011;69137;50.878;8.050;2023-05-29T08:19:02;9.65;;;3.38;;
79670;SDS011;69137;50.878;8.050;2023-05-29T08:21:29;6.22;;;3.40;;
79670;SDS011;69137;50.878;8.050;2023-05-29T08:30:35;4.95;;;3.08;;
79670;SDS011;69137;50.878;8.050;2023-05-29T08:33:02;5.90;;;3.65;;
79670;SDS011;69137;50.878;8.050;2023-05-29T08:35:30;6.28;;;3.20;;
79670;SDS011;69137;50.878;8.050;2023-05-29T08:37:56;5.13;;;3.33;;
79670;SDS011;69137;50.878;8.050;2023-05-29T08:40:21;8.93;;;3.05;;
79670;SDS011;69137;50.878;8.050;2023-05-29T08:42:47;8.80;;;3.17;;
79670;SDS011;69137;50.878;8.050;2023-05-29T08:45:25;5.53;;;2.90;;
79670;SDS011;69137;50.878;8.050;2023-05-29T08:48:11;9.57;;;3.35;;
79670;SDS011;69137;50.878;8.050;2023-05-29T08:51:14;5.25;;;3.33;;
79670;SDS011;69137;50.878;8.050;2023-05-29T08:53:53;9.32;;;3.67;;
79670;SDS011;69137;50.878;8.050;2023-05-29T08:59:16;6.05;;;3.35;;
79670;SDS011;69137;50.878;8.050;2023-05-29T09:01:48;7.35;;;3.22;;
79670;SDS011;69137;50.878;8.050;2023-05-29T09:04:13;6.50;;;3.53;;
79670;SDS011;69137;50.878;8.050;2023-05-29T09:06:39;8.40;;;3.40;;
79670;SDS011;69137;50.878;8.050;2023-05-29T09:09:06;5.10;;;3.28;;
79670;SDS011;69137;50.878;8.050;2023-05-29T09:11:31;6.32;;;3.33;;
79670;SDS011;69137;50.878;8.050;2023-05-29T09:13:58;7.15;;;3.03;;
79670;SDS011;69137;50.878;8.050;2023-05-29T09:16:24;6.22;;;3.58;;
79670;SDS011;69137;50.878;8.050;2023-05-29T09:18:50;10.07;;;2.83;;
79670;SDS011;69137;50.878;8.050;2023-05-29T09:21:25;6.88;;;3.38;;
79670;SDS011;69137;50.878;8.050;2023-05-29T09:23:52;6.22;;;2.97;;
79670;SDS011;69137;50.878;8.050;2023-05-29T09:26:27;6.07;;;2.85;;
79670;SDS011;69137;50.878;8.050;2023-05-29T09:28:53;9.75;;;3.67;;
79670;SDS011;69137;50.878;8.050;2023-05-29T09:31:18;9.70;;;3.47;;
79670;SDS011;69137;50.878;8.050;2023-05-29T09:36:24;5.25;;;2.92;;
79670;SDS011;69137;50.878;8.050;2023-05-29T09:38:50;9.10;;;3.45;;
79670;SDS011;69137;50.878;8.050;2023-05-29T09:41:22;5.40;;;3.13;;
79670;SDS011;69137;50.878;8.050;2023-05-29T09:43:51;8.10;;;2.92;;
79670;SDS011;69137;50.878;8.050;2023-05-29T09:46:20;6.07;;;3.20;;
79670;SDS011;69137;50.878;8.050;2023-05-29T09:48:46;7.78;;;3.45;;
79670;SDS011;69137;50.878;8.050;2023-05-29T09:51:19;9.40;;;3.47;;
79670;SDS011;69137;50.878;8.050;2023-05-29T09:53:47;5.40;;;2.90;;
79670;SDS011;69137;50.878;8.050;2023-05-29T09:56:13;7.70;;;3.67;;
79670;SDS011;69137;50.878;8.050;2023-05-29T09:58:42;6.22;;;3.72;;
79670;SDS011;69137;50.878;8.050;2023-05-29T10:01:14;7.20;;;3.20;;
79670;SDS011;69137;50.878;8.050;2023-05-29T10:03:41;6.22;;;3.35;;
79670;SDS011;69137;50.878;8.050;2023-05-29T10:06:07;7.07;;;4.00;;
79670;SDS011;69137;50.878;8.050;2023-05-29T10:08:45;6.57;;;3.67;;
79670;SDS011;69137;50.878;8.050;2023-05-29T10:11:16;9.73;;;4.00;;
79670;SDS011;69137;50.878;8.050;2023-05-29T10:13:49;5.75;;;3.80;;
79670;SDS011;69137;50.878;8.050;2023-05-29T10:16:17;8.25;;;4.00;;
79670;SDS011;69137;50.878;8.050;2023-05-29T10:18:55;7.03;;;3.58;;
79670;SDS011;69137;50.878;8.050;2023-05-29T10:21:22;6.25;;;3.97;;
79670;SDS011;69137;50.878;8.050;2023-05-29T10:23:51;6.07;;;3.58;;
79670;SDS011;69137;50.878;8.050;2023-05-29T10:26:21;7.15;;;3.70;;
79670;SDS011;69137;50.878;8.050;2023-05-29T10:31:58;5.95;;;3.38;;
79670;SDS011;69137;50.878;8.050;2023-05-29T10:34:55;5.50;;;2.78;;
79670;SDS011;69137;50.878;8.050;2023-05-29T10:37:35;6.40;;;2.92;;
79670;SDS011;69137;50.878;8.050;2023-05-29T10:40:06;5.88;;;3.03;;
79670;SDS011;69137;50.878;8.050;2023-05-29T10:50:36;7.68;;;3.60;;
79670;SDS011;69137;50.878;8.050;2023-05-29T10:53:01;6.15;;;3.45;;
79670;SDS011;69137;50.878;8.050;2023-05-29T10:55:36;8.13;;;3.90;;
79670;SDS011;69137;50.878;8.050;2023-05-29T10:58:08;4.90;;;2.92;;
79670;SDS011;69137;50.878;8.050;2023-05-29T11:00:40;7.68;;;3.90;;
79670;SDS011;69137;50.878;8.050;2023-05-29T11:03:07;9.02;;;3.60;;
79670;SDS011;69137;50.878;8.050;2023-05-29T11:05:33;5.68;;;3.47;;
79670;SDS011;69137;50.878;8.050;2023-05-29T11:07:59;6.30;;;3.20;;
79670;SDS011;69137;50.878;8.050;2023-05-29T11:13:29;5.38;;;3.10;;
79670;SDS011;69137;50.878;8.050;2023-05-29T11:16:41;6.45;;;2.95;;
79670;SDS011;69137;50.878;8.050;2023-05-29T11:18:45;5.75;;;3.33;;
79670;SDS011;69137;50.878;8.050;2023-05-29T11:21:15;5.97;;;3.45;;
79670;SDS011;69137;50.878;8.050;2023-05-29T11:26:26;7.38;;;3.50;;
79670;SDS011;69137;50.878;8.050;2023-05-29T11:28:52;10.55;;;3.72;;
79670;SDS011;69137;50.878;8.050;2023-05-29T11:31:18;6.20;;;3.17;;
79670;SDS011;69137;50.878;8.050;2023-05-29T11:33:48;5.40;;;3.10;;
79670;SDS011;69137;50.878;8.050;2023-05-29T11:36:16;6.68;;;3.45;;
79670;SDS011;69137;50.878;8.050;2023-05-29T11:38:43;7.10;;;3.38;;
79670;SDS011;69137;50.878;8.050;2023-05-29T11:41:09;8.35;;;3.15;;
79670;SDS011;69137;50.878;8.050;2023-05-29T11:43:34;7.32;;;3.30;;
79670;SDS011;69137;50.878;8.050;2023-05-29T11:46:00;7.70;;;3.13;;
79670;SDS011;69137;50.878;8.050;2023-05-29T11:48:26;6.97;;;3.35;;
79670;SDS011;69137;50.878;8.050;2023-05-29T11:50:52;5.65;;;3.20;;
79670;SDS011;69137;50.878;8.050;2023-05-29T11:53:18;5.55;;;2.85;;
79670;SDS011;69137;50.878;8.050;2023-05-29T11:55:43;8.82;;;3.15;;
79670;SDS011;69137;50.878;8.050;2023-05-29T11:58:09;7.72;;;3.53;;
79670;SDS011;69137;50.878;8.050;2023-05-29T12:00:35;4.80;;;3.10;;
79670;SDS011;69137;50.878;8.050;2023-05-29T12:03:03;8.35;;;2.88;;
79670;SDS011;69137;50.878;8.050;2023-05-29T12:05:43;7.70;;;3.05;;
79670;SDS011;69137;50.878;8.050;2023-05-29T12:13:00;6.33;;;3.13;;
79670;SDS011;69137;50.878;8.050;2023-05-29T12:15:26;6.90;;;3.35;;
79670;SDS011;69137;50.878;8.050;2023-05-29T12:17:52;9.73;;;3.80;;
79670;SDS011;69137;50.878;8.050;2023-05-29T12:20:19;8.02;;;3.28;;
79670;SDS011;69137;50.878;8.050;2023-05-29T12:22:48;12.80;;;4.30;;
79670;SDS011;69137;50.878;8.050;2023-05-29T12:25:15;6.60;;;3.03;;
79670;SDS011;69137;50.878;8.050;2023-05-29T12:27:45;6.80;;;3.03;;
79670;SDS011;69137;50.878;8.050;2023-05-29T12:30:13;6.75;;;3.00;;
79670;SDS011;69137;50.878;8.050;2023-05-29T12:32:42;7.50;;;3.55;;
79670;SDS011;69137;50.878;8.050;2023-05-29T12:35:18;3.95;;;2.55;;
79670;SDS011;69137;50.878;8.050;2023-05-29T12:37:49;7.78;;;3.30;;
79670;SDS011;69137;50.878;8.050;2023-05-29T12:40:20;6.70;;;2.80;;
79670;SDS011;69137;50.878;8.050;2023-05-29T12:42:47;7.07;;;2.88;;
79670;SDS011;69137;50.878;8.050;2023-05-29T12:45:13;7.50;;;2.95;;
79670;SDS011;69137;50.878;8.050;2023-05-29T12:47:46;6.53;;;3.30;;
79670;SDS011;69137;50.878;8.050;2023-05-29T12:52:45;7.15;;;4.00;;
79670;SDS011;69137;50.878;8.050;2023-05-29T12:55:11;8.50;;;3.33;;
79670;SDS011;69137;50.878;8.050;2023-05-29T12:57:36;8.52;;;2.90;;
79670;SDS011;69137;50.878;8.050;2023-05-29T13:00:01;4.38;;;2.63;;
79670;SDS011;69137;50.878;8.050;2023-05-29T13:02:27;10.63;;;3.25;;
79670;SDS011;69137;50.878;8.050;2023-05-29T13:04:54;5.30;;;2.75;;
79670;SDS011;69137;50.878;8.050;2023-05-29T13:07:19;6.85;;;2.80;;
79670;SDS011;69137;50.878;8.050;2023-05-29T13:09:45;10.32;;;2.97;;
79670;SDS011;69137;50.878;8.050;2023-05-29T13:12:11;9.07;;;3.05;;
79670;SDS011;69137;50.878;8.050;2023-05-29T13:14:37;7.72;;;3.10;;
79670;SDS011;69137;50.878;8.050;2023-05-29T13:17:03;10.65;;;4.03;;
79670;SDS011;69137;50.878;8.050;2023-05-29T13:19:29;7.60;;;3.25;;
79670;SDS011;69137;50.878;8.050;2023-05-29T13:21:54;5.55;;;3.00;;
79670;SDS011;69137;50.878;8.050;2023-05-29T13:24:20;7.40;;;3.55;;
79670;SDS011;69137;50.878;8.050;2023-05-29T13:26:46;10.65;;;4.45;;
79670;SDS011;69137;50.878;8.050;2023-05-29T13:29:11;8.15;;;3.75;;
79670;SDS011;69137;50.878;8.050;2023-05-29T13:31:37;9.35;;;3.35;;
79670;SDS011;69137;50.878;8.050;2023-05-29T13:34:02;10.45;;;4.00;;
79670;SDS011;69137;50.878;8.050;2023-05-29T13:36:27;12.07;;;5.20;;
79670;SDS011;69137;50.878;8.050;2023-05-29T13:38:53;11.95;;;3.90;;
79670;SDS011;69137;50.878;8.050;2023-05-29T13:41:18;9.18;;;3.13;;
79670;SDS011;69137;50.878;8.050;2023-05-29T13:43:44;10.98;;;3.42;;
79670;SDS011;69137;50.878;8.050;2023-05-29T13:46:09;10.68;;;3.53;;
79670;SDS011;69137;50.878;8.050;2023-05-29T13:48:35;7.75;;;3.38;;
79670;SDS011;69137;50.878;8.050;2023-05-29T13:51:01;6.95;;;2.90;;
79670;SDS011;69137;50.878;8.050;2023-05-29T13:53:26;8.48;;;3.42;;
79670;SDS011;69137;50.878;8.050;2023-05-29T13:55:51;6.57;;;3.03;;
79670;SDS011;69137;50.878;8.050;2023-05-29T13:58:17;8.05;;;2.88;;
79670;SDS011;69137;50.878;8.050;2023-05-29T14:00:42;7.28;;;3.58;;
79670;SDS011;69137;50.878;8.050;2023-05-29T14:03:08;7.20;;;3.85;;
79670;SDS011;69137;50.878;8.050;2023-05-29T14:05:33;8.70;;;3.22;;
79670;SDS011;69137;50.878;8.050;2023-05-29T14:07:59;8.95;;;3.60;;
79670;SDS011;69137;50.878;8.050;2023-05-29T14:10:25;8.35;;;3.80;;
79670;SDS011;69137;50.878;8.050;2023-05-29T14:12:50;6.20;;;2.72;;
79670;SDS011;69137;50.878;8.050;2023-05-29T14:15:16;7.07;;;3.55;;
79670;SDS011;69137;50.878;8.050;2023-05-29T14:17:41;7.68;;;3.10;;
79670;SDS011;69137;50.878;8.050;2023-05-29T14:20:07;5.63;;;3.00;;
79670;SDS011;69137;50.878;8.050;2023-05-29T14:22:33;8.77;;;3.38;;
79670;SDS011;69137;50.878;8.050;2023-05-29T14:24:59;6.25;;;3.08;;
79670;SDS011;69137;50.878;8.050;2023-05-29T14:27:25;8.13;;;3.10;;
79670;SDS011;69137;50.878;8.050;2023-05-29T14:29:51;5.78;;;2.75;;
79670;SDS011;69137;50.878;8.050;2023-05-29T14:32:16;7.30;;;2.97;;
79670;SDS011;69137;50.878;8.050;2023-05-29T14:34:42;6.15;;;2.78;;
79670;SDS011;69137;50.878;8.050;2023-05-29T14:37:07;8.02;;;3.13;;
79670;SDS011;69137;50.878;8.050;2023-05-29T14:39:33;11.13;;;2.95;;
79670;SDS011;69137;50.878;8.050;2023-05-29T14:41:58;11.63;;;3.63;;
79670;SDS011;69137;50.878;8.050;2023-05-29T14:44:24;10.05;;;3.13;;
79670;SDS011;69137;50.878;8.050;2023-05-29T14:46:50;7.53;;;3.28;;
79670;SDS011;69137;50.878;8.050;2023-05-29T14:49:15;9.65;;;2.92;;
79670;SDS011;69137;50.878;8.050;2023-05-29T14:51:40;10.43;;;3.42;;
79670;SDS011;69137;50.878;8.050;2023-05-29T14:54:07;6.72;;;2.85;;
79670;SDS011;69137;50.878;8.050;2023-05-29T14:56:34;5.65;;;2.63;;
79670;SDS011;69137;50.878;8.050;2023-05-29T14:58:59;8.48;;;3.50;;
79670;SDS011;69137;50.878;8.050;2023-05-29T15:01:25;8.20;;;2.78;;
79670;SDS011;69137;50.878;8.050;2023-05-29T15:03:50;9.52;;;3.38;;
79670;SDS011;69137;50.878;8.050;2023-05-29T15:06:16;6.80;;;2.75;;
79670;SDS011;69137;50.878;8.050;2023-05-29T15:08:41;8.07;;;2.85;;
79670;SDS011;69137;50.878;8.050;2023-05-29T15:11:08;10.55;;;2.85;;
79670;SDS011;69137;50.878;8.050;2023-05-29T15:13:34;8.23;;;2.63;;
79670;SDS011;69137;50.878;8.050;2023-05-29T15:16:00;5.00;;;3.25;;
79670;SDS011;69137;50.878;8.050;2023-05-29T15:18:28;9.18;;;3.30;;
79670;SDS011;69137;50.878;8.050;2023-05-29T15:20:53;7.63;;;2.88;;
79670;SDS011;69137;50.878;8.050;2023-05-29T15:23:19;8.00;;;3.22;;
79670;SDS011;69137;50.878;8.050;2023-05-29T15:25:47;6.10;;;2.80;;
79670;SDS011;69137;50.878;8.050;2023-05-29T15:28:16;8.55;;;3.50;;
79670;SDS011;69137;50.878;8.050;2023-05-29T15:30:42;11.02;;;3.88;;
79670;SDS011;69137;50.878;8.050;2023-05-29T15:33:08;4.75;;;2.35;;
79670;SDS011;69137;50.878;8.050;2023-05-29T15:35:35;8.55;;;3.10;;
79670;SDS011;69137;50.878;8.050;2023-05-29T15:38:05;6.97;;;3.67;;
79670;SDS011;69137;50.878;8.050;2023-05-29T15:40:31;7.65;;;2.30;;
79670;SDS011;69137;50.878;8.050;2023-05-29T15:42:56;7.07;;;2.92;;
79670;SDS011;69137;50.878;8.050;2023-05-29T15:45:21;8.05;;;3.33;;
79670;SDS011;69137;50.878;8.050;2023-05-29T15:47:48;9.23;;;3.33;;
79670;SDS011;69137;50.878;8.050;2023-05-29T15:50:14;7.93;;;2.78;;
79670;SDS011;69137;50.878;8.050;2023-05-29T15:52:39;7.25;;;3.05;;
79670;SDS011;69137;50.878;8.050;2023-05-29T15:55:04;8.23;;;3.10;;
79670;SDS011;69137;50.878;8.050;2023-05-29T15:57:30;10.02;;;3.05;;